Orbital elements of COSMOS 970 DEB
| Launched | 20 December 1977 |
| Flight ended | – |
| Launch site | Tyuratam Missile and Space Center, Kazakhstan (Also known as Baikonur Cosmodrome) |
| Owner | Commonwealth of Independent States (former USSR) |
| NORAD ID | 10886 |
| Date fetched |
Epoch osculation |
Inc. [°] |
Ecc. | RA asc node [hr] |
Arg Peri. [°] |
Mean anom [°] |
Mean motion [rev/day] |
Abs. mag |
| Date fetched |
Epoch osculation |
Inc. [°] |
Ecc. | RA asc node [hr] |
Arg Peri. [°] |
Mean anom [°] |
Mean motion [rev/day] |
Abs. mag |
| 2026 May 03 17:57 | 2026 Apr 30 09:35:14 | 65.8424 | 0.01014 | 6.5871 | 153.8786 | 4.0757 | 13.73909 | – |
| 2026 May 02 17:57 | 2026 Apr 30 09:35:14 | 65.8424 | 0.01014 | 6.5871 | 153.8786 | 4.0757 | 13.73909 | – |
| 2026 May 01 17:56 | 2026 Apr 30 09:35:14 | 65.8424 | 0.01014 | 6.5871 | 153.8786 | 4.0757 | 13.73909 | – |
| 2026 Apr 30 17:56 | 2026 Apr 30 09:35:14 | 65.8424 | 0.01014 | 6.5871 | 153.8786 | 4.0757 | 13.73909 | – |
| 2026 Apr 29 17:57 | 2026 Apr 24 10:18:14 | 65.8418 | 0.01019 | 7.5684 | 157.0245 | 4.0757 | 13.73909 | – |
| 2026 Apr 28 17:56 | 2026 Apr 24 10:18:14 | 65.8418 | 0.01019 | 7.5684 | 157.0245 | 4.0757 | 13.73909 | – |
| 2026 Apr 27 17:58 | 2026 Apr 24 10:18:14 | 65.8418 | 0.01019 | 7.5684 | 157.0245 | 4.0757 | 13.73909 | – |
| 2026 Apr 26 17:58 | 2026 Apr 24 10:18:14 | 65.8418 | 0.01019 | 7.5684 | 157.0245 | 4.0757 | 13.73909 | – |
| 2026 Apr 25 17:58 | 2026 Apr 24 10:18:14 | 65.8418 | 0.01019 | 7.5684 | 157.0245 | 4.0757 | 13.73909 | – |
| 2026 Apr 24 17:59 | 2026 Apr 24 10:18:14 | 65.8418 | 0.01019 | 7.5684 | 157.0245 | 4.0757 | 13.73909 | – |
| 2026 Apr 23 17:57 | 2026 Apr 17 19:27:24 | 65.8421 | 0.01025 | 8.6563 | 160.4069 | 4.0757 | 13.73909 | – |
| 2026 Apr 22 17:57 | 2026 Apr 17 19:27:24 | 65.8421 | 0.01025 | 8.6563 | 160.4069 | 4.0757 | 13.73909 | – |
| 2026 Apr 21 17:57 | 2026 Apr 17 19:27:24 | 65.8421 | 0.01025 | 8.6563 | 160.4069 | 4.0757 | 13.73909 | – |
| 2026 Apr 20 17:57 | 2026 Apr 17 19:27:24 | 65.8421 | 0.01025 | 8.6563 | 160.4069 | 4.0757 | 13.73909 | – |
| 2026 Apr 19 17:58 | 2026 Apr 17 19:27:24 | 65.8421 | 0.01025 | 8.6563 | 160.4069 | 4.0757 | 13.73909 | – |
| 2026 Apr 18 17:56 | 2026 Apr 12 13:32:47 | 65.8426 | 0.01030 | 9.5185 | 163.0168 | 4.0757 | 13.73909 | – |
| 2026 Apr 16 17:57 | 2026 Apr 12 13:32:47 | 65.8426 | 0.01030 | 9.5185 | 163.0168 | 4.0757 | 13.73909 | – |
| 2026 Apr 14 17:57 | 2026 Apr 12 13:32:47 | 65.8426 | 0.01030 | 9.5185 | 163.0168 | 4.0757 | 13.73909 | – |
| 2026 Apr 13 17:57 | 2026 Apr 12 13:32:47 | 65.8426 | 0.01030 | 9.5185 | 163.0168 | 4.0757 | 13.73909 | – |
| 2026 Apr 12 17:57 | 2026 Apr 08 13:26:02 | 65.8431 | 0.01034 | 10.1767 | 164.9581 | 4.0757 | 13.73909 | – |
| 2026 Apr 11 17:57 | 2026 Apr 08 13:26:02 | 65.8431 | 0.01034 | 10.1767 | 164.9581 | 4.0757 | 13.73909 | – |
| 2026 Apr 10 17:58 | 2026 Apr 08 13:26:02 | 65.8431 | 0.01034 | 10.1767 | 164.9581 | 4.0757 | 13.73909 | – |
| 2026 Apr 09 18:01 | 2026 Apr 08 13:26:02 | 65.8431 | 0.01034 | 10.1767 | 164.9581 | 4.0757 | 13.73909 | – |
| 2026 Apr 08 17:57 | 2026 Apr 08 13:26:02 | 65.8431 | 0.01034 | 10.1767 | 164.9581 | 4.0757 | 13.73909 | – |
| 2026 Apr 07 17:57 | 2026 Apr 01 09:58:25 | 65.8437 | 0.01042 | 11.3509 | 168.4182 | 4.0757 | 13.73909 | – |
| 2026 Apr 06 17:57 | 2026 Apr 01 09:58:25 | 65.8437 | 0.01042 | 11.3509 | 168.4182 | 4.0757 | 13.73909 | – |